Forside
METAR-TAF:

METAR-TAF

Lufthavne :

Ängelholm-Helsingborg Lufthavn

Helsingborg, Sverige

Breddekreds: 56-17-46N, længdekreds: 012-50-50E, højde: 21 m

Aktuelle vejr

Denne rapport blev lavet for 18 minutter siden, kl. 03:50 UTC
Vind 11 kt fra vestsydvest
Temperatur 7°C
Fugtighed 93%
Tryk 1010 hPa
Sigt 10 km eller mere

METAR: ESTA 180350Z AUTO 25011KT 9999 FEW011/// OVC027/// 07/06 Q1010

Tid: 05:08 (04:08 UTC)

Vejrudsigter

Denne rapport blev lavet for 7 timer og 54 minutter siden, kl. 20:14 UTC
Foreløbig gælder fra 17 på 21 UTC til 17 på 23 UTC
Vind 10 kt fra syd
Sigt 10 km eller mere
Nogle få skyer i en højde af 3000 ft
ændring
fra 17 på 21 UTC til 17 på 23 UTC
Sigt: 4000 m
Brudte skyer i en højde af 500 ft
let regn, finregn, dis

TAF: ESTA 172014Z 1721/1723 17010KT 9999 FEW030 BECMG 1721/1723 4000 -RADZ BR BKN005

Vejrobservationer og prognoser fra mere end 4000 lufthavne (METAR og TAF).

De gule og røde prikker repræsenterer de meteorologiske stationer.

Flyt musen over at se navnet på stationen.

Så klik over at se vejr observationer og prognoser.

At skifte det kort: Klik på de grønne knapper med et sort kors for at zoome ind; på den grønne knap med en bindestreg for at zoome ud; eller på de grønne pile for tilstødende kort.


METAR-TAF: